createdAt,value
2023-05-21T10:18:33.837Z,25.80
2023-05-21T10:21:02.305Z,25.60
2023-05-21T10:23:30.603Z,25.40
2023-05-21T10:25:58.868Z,25.30
2023-05-21T10:28:29.729Z,25.50
2023-05-21T10:30:57.674Z,25.40
2023-05-21T10:33:27.365Z,25.20
2023-05-21T10:35:58.128Z,25.60
2023-05-21T10:38:27.945Z,25.90
2023-05-21T10:40:57.700Z,25.80
2023-05-21T10:43:49.002Z,25.80
2023-05-21T10:46:45.928Z,26.10
2023-05-21T10:49:41.221Z,26.30
2023-05-21T10:52:23.862Z,26.00
2023-05-21T10:55:06.611Z,26.10
2023-05-21T10:57:47.032Z,26.10
2023-05-21T11:00:18.531Z,25.70
2023-05-21T11:02:46.847Z,26.10
2023-05-21T11:05:14.313Z,26.30
2023-05-21T11:07:53.084Z,26.40
2023-05-21T11:10:41.805Z,26.40
2023-05-21T11:13:16.966Z,27.10
2023-05-21T11:15:59.635Z,26.80
2023-05-21T11:18:36.070Z,26.60
2023-05-21T11:21:09.249Z,26.50
2023-05-21T11:23:58.235Z,26.10
2023-05-21T11:26:28.241Z,25.90
2023-05-21T11:29:04.628Z,26.60
2023-05-21T11:31:39.394Z,27.00
2023-05-21T11:34:29.141Z,26.90
2023-05-21T11:37:23.460Z,27.10
2023-05-21T11:39:51.807Z,27.20
2023-05-21T11:42:29.289Z,27.30
2023-05-21T11:45:01.635Z,26.90
2023-05-21T11:47:32.355Z,27.60
2023-05-21T11:50:04.897Z,27.80
2023-05-21T11:52:33.290Z,27.30
2023-05-21T11:55:00.687Z,27.20
2023-05-21T11:57:32.107Z,27.40
2023-05-21T12:00:01.641Z,27.70
2023-05-21T12:02:33.296Z,28.10
2023-05-21T12:05:00.946Z,28.00
2023-05-21T12:07:32.131Z,28.00
2023-05-21T12:10:00.397Z,28.30
2023-05-21T12:12:38.623Z,27.80
2023-05-21T12:15:13.699Z,26.80
2023-05-21T12:17:41.715Z,27.70
2023-05-21T12:20:10.869Z,27.90
2023-05-21T12:22:43.448Z,26.60
2023-05-21T12:25:12.309Z,25.90
2023-05-21T12:27:42.381Z,25.70
2023-05-21T12:30:10.291Z,25.50
2023-05-21T12:32:44.777Z,26.00
2023-05-21T12:35:23.260Z,28.60
2023-05-21T12:37:52.605Z,30.20
2023-05-21T12:40:20.570Z,30.90
2023-05-21T12:42:48.586Z,30.00
2023-05-21T12:45:18.901Z,27.70
2023-05-21T12:47:50.810Z,28.80
2023-05-21T12:50:21.802Z,31.00
2023-05-21T12:52:49.148Z,29.50
2023-05-21T12:55:17.668Z,29.20
2023-05-21T12:57:45.012Z,31.60
2023-05-21T13:00:12.806Z,31.50
2023-05-21T13:02:44.835Z,31.10
2023-05-21T13:05:20.276Z,30.00
2023-05-21T13:07:48.170Z,29.10
2023-05-21T13:10:17.139Z,31.80
2023-05-21T13:12:45.711Z,31.80
2023-05-21T13:15:13.546Z,31.40
2023-05-21T13:17:41.151Z,31.10
2023-05-21T13:20:20.779Z,30.60
2023-05-21T13:22:50.457Z,29.90
2023-05-21T13:25:25.152Z,29.60
2023-05-21T13:27:53.814Z,29.60
2023-05-21T13:30:22.590Z,29.60
2023-05-21T13:32:50.086Z,29.90
2023-05-21T13:35:17.839Z,29.90
2023-05-21T13:37:46.209Z,30.00
2023-05-21T13:40:15.672Z,30.20
2023-05-21T13:42:47.921Z,31.60
2023-05-21T13:45:17.596Z,31.60
2023-05-21T13:47:46.681Z,31.70
2023-05-21T13:50:14.611Z,32.60
2023-05-21T13:52:41.970Z,30.60
2023-05-21T13:55:10.846Z,28.40
2023-05-21T13:57:38.690Z,30.60
2023-05-21T14:00:09.439Z,31.90
2023-05-21T14:02:37.867Z,33.60
2023-05-21T14:05:05.897Z,31.50
2023-05-21T14:07:33.253Z,32.90
2023-05-21T14:10:00.700Z,34.50
2023-05-21T14:12:28.797Z,34.10
2023-05-21T14:14:56.602Z,33.00
2023-05-21T14:17:23.924Z,31.80
2023-05-21T14:19:51.242Z,32.80
2023-05-21T14:22:18.792Z,33.40
2023-05-21T14:24:47.030Z,33.30
2023-05-21T14:27:15.907Z,33.50
2023-05-21T14:29:43.299Z,33.40
2023-05-21T14:32:10.796Z,32.80
2023-05-21T14:34:39.255Z,31.90
2023-05-21T14:37:06.798Z,34.10
2023-05-21T14:39:34.203Z,33.60
2023-05-21T14:42:04.787Z,33.30
2023-05-21T14:44:32.630Z,33.20
2023-05-21T14:47:00.097Z,33.80
2023-05-21T14:49:27.795Z,33.70
2023-05-21T14:51:55.088Z,34.30
2023-05-21T14:54:22.596Z,34.80
2023-05-21T14:56:49.980Z,34.40
2023-05-21T14:59:17.221Z,34.00
2023-05-21T15:01:44.483Z,33.10
2023-05-21T15:04:11.993Z,32.60
2023-05-21T15:06:39.734Z,34.00
2023-05-21T15:09:07.061Z,33.90
2023-05-21T15:11:34.708Z,34.40
2023-05-21T15:14:02.062Z,34.70
2023-05-21T15:16:29.334Z,34.40
2023-05-21T15:18:56.960Z,33.70
2023-05-21T15:21:26.493Z,35.00
2023-05-21T15:23:55.507Z,35.30
2023-05-21T15:26:25.623Z,34.70
2023-05-21T15:28:53.112Z,35.00
2023-05-21T15:31:20.420Z,35.10
2023-05-21T15:33:47.788Z,35.00
2023-05-21T15:36:14.956Z,35.10
2023-05-21T15:38:42.261Z,35.30
2023-05-21T15:41:09.492Z,34.00
2023-05-21T15:43:36.783Z,34.70
2023-05-21T15:46:04.558Z,33.80
2023-05-21T15:48:31.833Z,33.70
2023-05-21T15:50:59.014Z,34.10
2023-05-21T15:53:26.234Z,33.90
2023-05-21T15:55:53.644Z,34.40
2023-05-21T15:58:20.910Z,33.80
2023-05-21T16:00:48.282Z,34.00
2023-05-21T16:03:16.141Z,33.60
2023-05-21T16:05:43.603Z,33.20
2023-05-21T16:08:12.413Z,33.00
2023-05-21T16:10:40.298Z,33.50
2023-05-21T16:13:07.763Z,33.30
2023-05-21T16:15:36.421Z,33.30
2023-05-21T16:18:04.510Z,32.30
2023-05-21T16:20:32.555Z,31.60
2023-05-21T16:23:00.101Z,30.90
2023-05-21T16:25:27.348Z,30.00
2023-05-21T16:27:55.045Z,29.40
2023-05-21T16:30:22.405Z,28.60
2023-05-21T16:32:49.836Z,27.30
2023-05-21T16:35:17.100Z,26.70
2023-05-21T16:37:44.427Z,26.40
2023-05-21T16:40:14.282Z,26.20
2023-05-21T16:42:41.684Z,26.00
2023-05-21T16:45:09.408Z,25.90
2023-05-21T16:47:36.852Z,26.10
2023-05-21T16:50:05.023Z,25.90
2023-05-21T16:52:32.236Z,25.70
2023-05-21T16:54:59.426Z,25.40
2023-05-21T16:57:26.681Z,25.40
2023-05-21T16:59:54.080Z,25.10
2023-05-21T17:02:21.775Z,25.10
2023-05-21T17:04:49.208Z,25.20
2023-05-21T17:07:16.735Z,25.10
2023-05-21T17:09:43.971Z,25.00
2023-05-21T17:12:11.380Z,24.90
2023-05-21T17:14:40.075Z,24.80
2023-05-21T17:17:07.761Z,24.80
2023-05-21T17:19:35.091Z,24.70
2023-05-21T17:22:02.622Z,24.60
2023-05-21T17:24:30.103Z,24.70
2023-05-21T17:26:57.343Z,24.50
2023-05-21T17:29:24.580Z,24.50
2023-05-21T17:31:51.985Z,24.70
2023-05-21T17:34:19.515Z,24.60
2023-05-21T17:36:47.330Z,24.40
2023-05-21T17:39:14.615Z,24.20
2023-05-21T17:41:42.143Z,24.00
2023-05-21T17:44:10.509Z,23.80
2023-05-21T17:46:37.886Z,23.80
2023-05-21T17:49:07.597Z,23.60
2023-05-21T17:51:35.064Z,23.50
2023-05-21T17:54:02.515Z,23.30
2023-05-21T17:56:29.776Z,23.10
2023-05-21T17:58:57.039Z,23.00
2023-05-21T18:01:24.419Z,22.90
2023-05-21T18:03:51.849Z,22.80
2023-05-21T18:06:19.370Z,22.60
2023-05-21T18:08:46.677Z,22.40
2023-05-21T18:11:13.889Z,22.40
2023-05-21T18:13:41.142Z,22.50
2023-05-21T18:16:09.224Z,22.40
2023-05-21T18:18:36.577Z,22.00
2023-05-21T18:21:04.034Z,22.10
2023-05-21T18:23:31.822Z,22.10
2023-05-21T18:25:59.030Z,22.00
2023-05-21T18:28:27.807Z,21.90
2023-05-21T18:30:55.825Z,21.90
2023-05-21T18:33:23.216Z,21.70
2023-05-21T18:35:50.477Z,21.60
2023-05-21T18:38:17.620Z,21.50
2023-05-21T18:40:45.023Z,21.50
2023-05-21T18:43:12.383Z,21.40
2023-05-21T18:45:41.194Z,21.40
2023-05-21T18:48:08.966Z,21.30
2023-05-21T18:50:37.454Z,21.30
2023-05-21T18:53:06.129Z,21.10
2023-05-21T18:55:35.043Z,21.10
2023-05-21T18:58:02.295Z,21.00
2023-05-21T19:00:29.687Z,20.80
2023-05-21T19:02:56.996Z,20.90
2023-05-21T19:05:24.357Z,20.80
2023-05-21T19:07:51.782Z,20.70
2023-05-21T19:10:19.837Z,20.70
2023-05-21T19:12:47.279Z,20.60
2023-05-21T19:15:15.944Z,20.60
2023-05-21T19:17:43.355Z,20.60
2023-05-21T19:20:10.791Z,20.50
2023-05-21T19:22:38.225Z,20.40
2023-05-21T19:25:05.959Z,20.30
2023-05-21T19:27:34.026Z,20.30
2023-05-21T19:30:01.447Z,20.30
2023-05-21T19:32:29.225Z,20.20
2023-05-21T19:34:57.539Z,20.10
2023-05-21T19:37:24.711Z,20.10
2023-05-21T19:39:51.952Z,20.10
2023-05-21T19:42:21.714Z,19.90
2023-05-21T19:44:49.083Z,19.90
2023-05-21T19:47:16.510Z,19.50
2023-05-21T19:49:43.757Z,19.40
2023-05-21T19:52:12.395Z,19.30
2023-05-21T19:54:39.907Z,19.10
2023-05-21T19:57:08.242Z,19.30
2023-05-21T19:59:36.808Z,19.40
2023-05-21T20:02:04.132Z,19.30
2023-05-21T20:04:33.741Z,19.20
2023-05-21T20:07:01.068Z,19.20
2023-05-21T20:09:28.291Z,19.20
2023-05-21T20:11:55.633Z,19.00
2023-05-21T20:14:22.908Z,19.00
2023-05-21T20:16:50.067Z,19.00
2023-05-21T20:19:17.427Z,19.00
2023-05-21T20:21:45.285Z,19.00
2023-05-21T20:24:13.483Z,19.20
2023-05-21T20:26:40.888Z,19.10
2023-05-21T20:29:08.401Z,18.90
2023-05-21T20:31:36.297Z,18.60
2023-05-21T20:34:09.215Z,18.40
2023-05-21T20:36:37.020Z,18.40
2023-05-21T20:39:05.205Z,18.40
2023-05-21T20:41:36.334Z,18.30
2023-05-21T20:44:06.983Z,18.30
2023-05-21T20:46:38.722Z,18.10
2023-05-21T20:49:06.673Z,18.00
2023-05-21T20:51:34.267Z,17.90
2023-05-21T20:54:01.710Z,17.80
2023-05-21T20:56:41.399Z,17.70
2023-05-21T20:59:11.203Z,17.60
2023-05-21T21:01:41.314Z,17.70
2023-05-21T21:04:09.256Z,17.80
2023-05-21T21:06:38.704Z,17.80
2023-05-21T21:09:06.387Z,17.80
2023-05-21T21:11:34.006Z,17.70
2023-05-21T21:14:02.856Z,17.50
2023-05-21T21:16:30.393Z,17.50
2023-05-21T21:18:57.759Z,17.50
2023-05-21T21:21:25.182Z,17.50
2023-05-21T21:23:52.389Z,17.50
2023-05-21T21:26:20.089Z,17.60
2023-05-21T21:28:47.319Z,17.50
2023-05-21T21:31:14.638Z,17.40
2023-05-21T21:33:41.961Z,17.40
2023-05-21T21:36:14.496Z,17.30
2023-05-21T21:38:41.838Z,17.40
2023-05-21T21:41:09.195Z,17.50
2023-05-21T21:43:37.257Z,17.30
2023-05-21T21:46:04.586Z,17.40
2023-05-21T21:48:31.891Z,17.40
2023-05-21T21:50:59.403Z,17.50
2023-05-21T21:53:26.703Z,17.40
2023-05-21T21:55:55.253Z,17.30
2023-05-21T21:58:22.490Z,17.20
2023-05-21T22:00:49.948Z,17.20
2023-05-21T22:03:17.312Z,17.10
2023-05-21T22:05:44.652Z,17.20
2023-05-21T22:08:12.426Z,17.10
2023-05-21T22:10:39.787Z,17.00
2023-05-21T22:13:07.812Z,17.00
2023-05-21T22:15:35.548Z,17.00
2023-05-21T22:18:03.505Z,16.90
2023-05-21T22:20:31.152Z,16.90
2023-05-21T22:22:59.022Z,16.90
2023-05-21T22:25:26.288Z,16.90
2023-05-21T22:27:53.785Z,16.80
2023-05-21T22:30:21.264Z,16.80
2023-05-21T22:32:48.587Z,16.80
2023-05-21T22:35:16.025Z,16.70
2023-05-21T22:37:43.444Z,16.70
2023-05-21T22:40:11.418Z,16.80
2023-05-21T22:42:39.269Z,16.80
2023-05-21T22:45:08.641Z,16.80
2023-05-21T22:47:39.886Z,16.60
2023-05-21T22:50:08.616Z,16.50
2023-05-21T22:52:36.364Z,16.30
2023-05-21T22:55:04.249Z,16.10
2023-05-21T22:57:31.960Z,16.20
2023-05-21T22:59:59.290Z,16.20
2023-05-21T23:02:26.686Z,16.20
2023-05-21T23:04:54.021Z,16.20
2023-05-21T23:07:21.340Z,16.10
2023-05-21T23:09:48.580Z,16.00
2023-05-21T23:12:17.175Z,16.00
2023-05-21T23:14:45.448Z,16.00
2023-05-21T23:17:12.639Z,15.80
2023-05-21T23:19:39.990Z,15.80
2023-05-21T23:22:07.183Z,15.70
2023-05-21T23:24:36.458Z,15.60
2023-05-21T23:27:03.960Z,15.50
2023-05-21T23:29:31.273Z,15.60
2023-05-21T23:31:59.050Z,15.60
2023-05-21T23:34:26.572Z,15.70
2023-05-21T23:36:54.033Z,15.80
2023-05-21T23:39:21.454Z,15.80
2023-05-21T23:41:49.888Z,15.80
2023-05-21T23:44:17.143Z,15.70
2023-05-21T23:46:44.517Z,15.60
2023-05-21T23:49:12.256Z,15.70
2023-05-21T23:51:40.232Z,15.60
2023-05-21T23:54:08.341Z,15.60
2023-05-21T23:56:35.725Z,15.50
2023-05-21T23:59:03.124Z,15.50
